Latest Weather Observations for Hobart Airport

IDT60901

Issued at 9:01 am EST Thursday 5 May 2016 (issued every 10 minutes, with the page automatically refreshed every 10 minutes)

About weather observations | Map of Hobart area stations | Latest observations for Hobart area | Other Formats
Station Details ID: 094008 Name: HOBART AIRPORT Lat: -42.83 Lon: 147.50 Height: 4.0 m
Data from the previous 72 hours. | See also: Recent months at Hobart Airport
Date/Time
EST
Tmp

°C
App
Tmp
°C
Dew
Point
°C
Rel
Hum
%
Delta-T

°C
Wind Press
QNH
hPa
Press
MSL
hPa
Rain
since
9 am
mm
Dir
 
Spd
km/h
Gust
km/h
Spd
kts
Gust
kts
05/08:30am 15.9 10.4 7.7 58 4.1 N 26 39 14 21 1007.0 1007.0 0.0
05/08:00am 16.1 10.4 6.8 54 4.6 N 26 37 14 20 1006.8 1006.8 0.0
05/07:30am 15.2 11.3 7.3 59 3.9 N 17 28 9 15 1006.5 1006.5 0.0
05/07:00am 15.3 12.1 7.0 57 4.1 NNE 13 20 7 11 1006.5 1006.5 0.0
05/06:30am 14.9 10.4 7.0 59 3.9 N 20 30 11 16 1006.0 1006.0 0.0
05/06:00am 15.0 11.0 6.8 58 4.0 N 17 24 9 13 1005.9 1005.9 0.0
05/05:30am 14.7 11.4 6.5 58 4.0 NNE 13 22 7 12 1005.8 1005.8 0.0
05/05:00am 14.6 10.5 6.3 57 4.0 N 17 24 9 13 1005.7 1005.7 0.0
05/04:30am 14.7 10.6 6.2 56 4.1 NNE 17 20 9 11 1005.3 1005.3 0.0
05/04:00am 15.2 9.9 5.1 51 4.8 N 22 32 12 17 1005.2 1005.2 0.0
05/03:30am 14.9 9.6 5.2 52 4.6 N 22 33 12 18 1005.1 1005.1 0.0
05/03:00am 14.8 10.5 5.1 52 4.6 NNW 17 33 9 18 1005.1 1005.1 0.0
05/02:30am 15.0 9.7 5.1 51 4.7 N 22 33 12 18 1005.0 1005.0 0.0
05/02:00am 14.5 9.6 5.2 53 4.4 N 20 30 11 16 1005.1 1005.1 0.0
05/01:30am 14.5 9.6 5.2 53 4.4 N 20 32 11 17 1005.2 1005.2 0.0
05/01:00am 14.1 8.9 5.4 56 4.1 N 22 37 12 20 1005.4 1005.4 0.0
05/12:30am 14.2 10.2 5.0 54 4.3 N 15 28 8 15 1005.5 1005.5 0.0
05/12:00am 13.7 10.1 5.2 56 4.0 NNW 13 22 7 12 1005.6 1005.6 0.0
 
Date/Time
EST
Tmp

°C
App
Tmp
°C
Dew
Point
°C
Rel
Hum
%
Delta-T

°C
Wind Press
QNH
hPa
Press
MSL
hPa
Rain
since
9 am
mm
Dir
 
Spd
km/h
Gust
km/h
Spd
kts
Gust
kts
04/11:30pm 13.3 9.7 5.2 58 3.8 N 13 26 7 14 1005.9 1005.9 0.0
04/11:00pm 13.7 9.6 4.4 53 4.3 N 15 26 8 14 1006.0 1006.0 0.0
04/10:30pm 13.6 9.4 3.7 51 4.5 N 15 24 8 13 1006.1 1006.1 0.0
04/10:00pm 13.3 7.8 3.8 52 4.3 N 22 37 12 20 1006.3 1006.3 0.0
04/09:30pm 13.0 8.0 3.4 52 4.3 N 19 32 10 17 1006.2 1006.2 0.0
04/09:00pm 13.3 7.7 3.3 50 4.5 N 22 35 12 19 1006.5 1006.5 0.0
04/08:30pm 12.7 8.7 2.7 50 4.4 N 13 20 7 11 1006.6 1006.6 0.0
04/08:00pm 12.5 8.5 3.0 52 4.2 N 13 20 7 11 1006.5 1006.5 0.0
04/07:30pm 12.5 8.1 2.7 51 4.3 N 15 28 8 15 1006.8 1006.8 0.0
04/07:00pm 12.1 7.7 2.8 53 4.1 N 15 22 8 12 1006.6 1006.6 0.0
04/06:30pm 12.7 7.2 1.8 47 4.7 N 20 32 11 17 1006.6 1006.6 0.0
04/06:00pm 12.6 7.1 1.7 47 4.7 N 20 28 11 15 1006.2 1006.2 0.0
04/05:30pm 13.1 7.8 1.8 46 4.9 NNW 19 30 10 16 1006.3 1006.3 0.0
04/05:00pm 13.2 9.2 2.6 48 4.7 N 13 17 7 9 1006.1 1006.1 0.0
04/04:30pm 13.5 6.4 1.5 44 5.2 NNW 28 39 15 21 1005.9 1005.9 0.0
04/04:00pm 14.1 7.1 1.7 43 5.4 NNW 28 37 15 20 1005.8 1005.8 0.0
04/03:30pm 13.8 7.2 1.9 44 5.2 NW 26 35 14 19 1005.9 1005.9 0.0
04/03:17pm 13.9 6.9 1.8 44 5.3 NW 28 48 15 26 1005.7 1005.7 0.0
04/03:00pm 14.5 7.9 2.0 43 5.5 NW 26 37 14 20 1005.7 1005.7 0.0
04/02:30pm 14.2 8.3 1.6 42 5.5 NNW 22 33 12 18 1005.9 1005.9 0.0
04/02:00pm 14.0 6.6 1.6 43 5.4 NW 30 41 16 22 1005.5 1005.5 0.0
04/01:30pm 13.3 7.0 1.8 45 5.0 NNW 24 46 13 25 1005.9 1005.9 0.0
04/01:00pm 13.6 6.7 2.8 48 4.8 NW 28 39 15 21 1006.1 1006.1 0.0
04/12:47pm 14.1 7.2 2.7 46 5.1 NW 28 50 15 27 1006.0 1006.0 0.0
04/12:30pm 12.9 6.3 2.1 48 4.7 NW 26 41 14 22 1006.3 1006.3 0.0
04/12:00pm 13.3 8.1 2.4 47 4.8 NNW 19 28 10 15 1006.4 1006.4 0.0
04/11:30am 13.0 6.7 1.7 46 4.9 NW 24 32 13 17 1006.4 1006.4 0.0
04/11:00am 13.0 7.1 2.0 47 4.8 NW 22 28 12 15 1006.4 1006.4 0.0
04/10:30am 12.0 6.6 2.3 51 4.2 NNW 20 28 11 15 1006.5 1006.5 0.0
04/10:00am 10.9 5.4 2.0 54 3.8 NNW 20 30 11 16 1006.1 1006.1 0.0
04/09:30am 10.7 5.4 1.7 53 3.8 N 19 28 10 15 1006.1 1006.1 0.0
04/09:00am 9.3 4.3 1.6 58 3.2 N 17 22 9 12 1005.8 1005.8 2.2
04/08:30am 8.3 3.0 1.8 63 2.7 N 19 24 10 13 1005.4 1005.4 2.2
04/08:00am 8.1 3.1 1.5 63 2.7 NNW 17 22 9 12 1005.1 1005.1 2.2
04/07:30am 7.3 3.3 0.8 63 2.6 NW 11 17 6 9 1004.8 1004.8 2.2
04/07:00am 4.9 1.2 2.4 84 1.0 N 11 15 6 8 1004.2 1004.2 2.2
04/06:30am 6.4 2.3 2.0 73 1.8 NNW 13 17 7 9 1003.6 1003.6 2.2
04/06:00am 6.9 2.1 2.6 74 1.8 NNW 17 24 9 13 1003.0 1003.0 2.2
04/05:30am 6.9 1.5 2.3 72 1.9 NW 20 26 11 14 1002.5 1002.5 2.2
04/05:00am 6.7 0.8 1.8 71 2.0 NW 22 30 12 16 1001.6 1001.6 2.2
04/04:30am 7.1 1.6 2.0 70 2.1 NNW 20 32 11 17 1000.8 1000.8 2.2
04/04:00am 6.9 -0.1 1.8 70 2.1 NW 28 37 15 20 1000.2 1000.2 2.2
04/03:30am 7.2 0.9 1.6 67 2.3 NW 24 35 13 19 999.9 999.9 2.2
04/03:00am 6.8 0.1 1.4 68 2.2 WNW 26 35 14 19 999.1 999.1 2.2
04/02:30am 6.6 0.0 2.0 72 1.9 NW 26 35 14 19 999.1 999.1 2.2
04/02:00am 6.7 -0.2 2.4 74 1.8 NW 28 37 15 20 998.4 998.4 2.2
04/01:30am 6.7 0.7 3.2 78 1.5 NNW 24 35 13 19 998.3 998.3 2.2
04/01:00am 7.2 2.8 2.9 74 1.8 NNW 15 30 8 16 997.8 997.8 2.2
04/12:30am 7.1 2.7 2.8 74 1.8 NNW 15 20 8 11 998.2 998.2 2.2
04/12:00am 6.5 3.6 2.7 77 1.6 N 7 9 4 5 997.7 997.7 2.2
 
Date/Time
EST
Tmp

°C
App
Tmp
°C
Dew
Point
°C
Rel
Hum
%
Delta-T

°C
Wind Press
QNH
hPa
Press
MSL
hPa
Rain
since
9 am
mm
Dir
 
Spd
km/h
Gust
km/h
Spd
kts
Gust
kts
03/11:30pm 7.2 3.1 2.4 71 2.0 NW 13 19 7 10 997.3 997.3 2.2
03/11:00pm 7.3 2.4 1.7 67 2.3 NW 17 26 9 14 996.8 996.9 2.2
03/10:30pm 8.1 5.6 1.6 63 2.7 W 4 20 2 11 996.3 996.4 2.2
03/10:00pm 7.4 5.3 1.8 67 2.3 NW 2 9 1 5 995.8 995.9 2.2
03/09:30pm 7.1 3.1 2.6 73 1.9 WNW 13 20 7 11 995.8 995.9 2.2
03/09:00pm 8.5 3.3 2.4 65 2.6 NNW 19 32 10 17 994.7 994.8 2.2
03/08:30pm 8.2 2.7 2.0 65 2.6 NNW 20 30 11 16 994.3 994.4 2.2
03/08:00pm 8.7 3.3 2.6 65 2.6 NNW 20 28 11 15 994.0 994.1 2.2
03/07:30pm 9.2 2.8 3.0 65 2.7 NW 26 35 14 19 993.3 993.4 2.2
03/07:00pm 9.4 2.2 2.9 64 2.8 NW 30 37 16 20 993.1 993.2 2.2
03/06:30pm 9.8 3.3 2.6 61 3.1 NNW 26 33 14 18 992.1 992.1 2.2
03/06:00pm 10.7 4.1 1.8 54 3.8 NW 26 37 14 20 991.7 991.7 2.2
03/05:30pm 10.9 4.8 2.7 57 3.5 NNW 24 37 13 20 990.4 990.4 2.2
03/05:18pm 11.1 3.8 2.6 56 3.7 NNW 30 48 16 26 990.5 990.5 2.2
03/05:00pm 11.3 5.4 4.0 61 3.3 NNW 24 39 13 21 990.4 990.4 2.2
03/04:30pm 11.4 9.6 8.0 79 1.7 NNE 7 9 4 5 989.1 989.1 2.2
03/04:00pm 11.5 8.3 6.9 73 2.2 NNW 13 17 7 9 989.2 989.2 2.2
03/03:30pm 11.9 9.0 8.3 78 1.8 NNW 13 19 7 10 988.7 988.7 2.2
03/03:00pm 11.8 8.6 8.4 80 1.7 W 15 19 8 10 988.3 988.3 2.2
03/02:30pm 12.6 9.9 9.1 79 1.8 SW 13 17 7 9 987.6 987.6 2.2
03/02:00pm 12.3 9.9 8.7 79 1.8 W 11 15 6 8 988.0 988.0 1.8
03/01:30pm 12.5 10.1 8.5 76 2.0 NNW 11 17 6 9 987.7 987.7 1.8
03/01:00pm 12.2 10.7 9.3 82 1.5 N 7 13 4 7 987.1 987.1 1.8
03/12:30pm 12.0 10.7 9.9 87 1.1 NNE 7 11 4 6 988.2 988.2 1.8
03/12:00pm 11.8 9.7 9.9 88 1.0 W 11 13 6 7 989.4 989.4 1.6
03/11:30am 11.4 10.0 9.6 89 0.9 NW 7 11 4 6 988.9 988.9 1.6
03/11:00am 11.4 9.5 9.2 86 1.1 NNW 9 13 5 7 989.0 989.0 1.0
03/10:30am 12.3 7.7 8.1 75 2.1 WNW 22 30 12 16 988.9 988.9 0.2
03/10:00am 13.1 9.2 7.0 66 3.0 WNW 17 22 9 12 988.4 988.4 0.0
03/09:30am 13.0 9.4 8.2 72 2.4 WNW 17 22 9 12 988.7 988.7 0.0
03/09:00am 13.0 6.9 6.8 66 3.0 W 28 37 15 20 988.8 988.8 8.8
03/08:30am 14.5 10.8 8.0 65 3.2 NNW 17 30 9 16 988.9 988.9 8.8
03/08:00am 13.5 10.6 9.6 77 2.0 N 15 24 8 13 988.1 988.1 8.8
03/07:30am 13.4 10.1 9.7 78 1.9 NNW 17 26 9 14 988.0 988.0 8.8
03/07:00am 13.1 9.1 10.4 84 1.4 NNW 22 30 12 16 987.6 987.6 8.8
03/06:30am 13.0 9.9 11.5 91 0.8 NNW 19 28 10 15 987.8 987.8 8.4
03/06:00am 13.2 10.6 12.1 93 0.6 NNW 17 26 9 14 987.3 987.3 5.2
03/05:37am 13.8 10.1 11.6 86 1.2 NNW 22 33 12 18 987.7 987.7 2.6
03/05:30am 14.4 10.6 11.0 80 1.8 N 22 33 12 18 987.5 987.5 1.6
03/05:00am 14.2 10.4 11.0 81 1.7 N 22 30 12 16 987.4 987.4 1.2
03/04:30am 14.6 11.0 10.7 77 2.1 NNW 20 30 11 16 988.0 988.0 1.2
03/04:00am 15.5 10.9 9.6 68 3.1 NNW 24 35 13 19 988.2 988.2 0.0
03/03:30am 16.0 10.3 8.4 60 3.9 N 28 43 15 23 987.8 987.8 0.0
03/03:00am 16.5 10.6 7.6 55 4.5 N 28 41 15 22 987.8 987.8 0.0
03/02:30am 16.3 10.8 7.6 56 4.4 N 26 39 14 21 988.3 988.3 0.0
03/02:07am 17.9 10.2 5.5 44 6.0 NNW 35 65 19 35 988.3 988.3 0.0
03/02:00am 17.8 10.7 5.3 43 6.1 NNW 32 48 17 26 988.1 988.1 0.0
03/01:30am 17.5 9.1 5.7 46 5.7 NNW 39 67 21 36 988.2 988.2 0.0
03/01:00am 17.4 9.3 5.3 45 5.9 NNW 37 61 20 33 988.7 988.7 0.0
03/12:34am 16.8 9.8 6.0 49 5.3 NNW 32 54 17 29 989.1 989.1 0.0
03/12:30am 17.0 10.3 5.8 47 5.4 NNW 30 46 16 25 989.0 989.0 0.0
03/12:00am 16.9 9.3 5.7 47 5.5 NNW 35 59 19 32 989.3 989.3 0.0
 
Date/Time
EST
Tmp

°C
App
Tmp
°C
Dew
Point
°C
Rel
Hum
%
Delta-T

°C
Wind Press
QNH
hPa
Press
MSL
hPa
Rain
since
9 am
mm
Dir
 
Spd
km/h
Gust
km/h
Spd
kts
Gust
kts
02/11:31pm 16.9 9.8 5.4 46 5.5 NNW 32 50 17 27 989.4 989.4 0.0
02/11:30pm 17.0 9.7 5.3 46 5.6 NNW 33 50 18 27 989.5 989.5 0.0
02/11:00pm 16.7 8.6 5.1 46 5.6 NNW 37 61 20 33 990.6 990.6 0.0
02/10:30pm 16.7 9.2 4.6 44 5.7 NNW 33 74 18 40 990.8 990.8 0.0
02/10:00pm 16.4 9.5 4.4 45 5.7 NNW 30 50 16 27 991.1 991.1 0.0
02/09:32pm 16.2 9.3 4.7 46 5.4 N 30 50 16 27 991.6 991.6 0.0
02/09:30pm 16.2 9.3 4.7 46 5.4 N 30 43 16 23 991.7 991.7 0.0
02/09:00pm 16.0 9.3 5.4 49 5.1 N 30 54 16 29 992.8 992.9 0.0
02/08:33pm 15.9 9.5 5.0 48 5.2 N 28 50 15 27 993.3 993.4 0.0
02/08:30pm 16.3 10.5 4.5 45 5.5 N 24 41 13 22 993.5 993.6 0.0
02/08:00pm 16.0 10.4 5.4 49 5.1 N 24 39 13 21 994.3 994.4 0.0
02/07:30pm 15.7 11.1 6.3 53 4.6 N 20 35 11 19 994.7 994.8 0.0
02/07:00pm 15.2 10.3 6.9 57 4.1 N 22 33 12 18 994.8 994.9 0.0
02/06:30pm 15.8 10.7 6.2 53 4.7 N 22 35 12 19 995.1 995.2 0.0
02/06:00pm 15.8 10.3 5.7 51 4.9 N 24 35 13 19 995.2 995.3 0.0
02/05:43pm 15.7 9.5 6.1 53 4.6 N 28 46 15 25 995.3 995.4 0.0
02/05:30pm 16.1 9.7 5.3 48 5.2 NNW 28 43 15 23 995.4 995.5 0.0
02/05:09pm 16.5 10.0 4.8 46 5.5 N 28 46 15 25 995.4 995.5 0.0
02/05:00pm 16.3 10.0 5.6 49 5.2 N 28 41 15 22 995.5 995.6 0.0
02/04:30pm 16.5 10.1 5.3 47 5.4 N 28 44 15 24 996.1 996.2 0.0
02/04:00pm 17.2 11.8 4.7 43 6.0 NNW 22 37 12 20 996.5 996.6 0.0
02/03:30pm 17.9 11.5 3.4 38 6.7 NNW 26 39 14 21 997.0 997.1 0.0
02/03:00pm 17.2 12.2 4.4 42 6.1 NNW 20 30 11 16 997.4 997.4 0.0
02/02:30pm 17.4 9.6 2.9 38 6.7 NNW 33 44 18 24 997.8 997.8 0.0
02/02:07pm 17.7 9.7 3.7 39 6.5 NNW 35 54 19 29 997.6 997.6 0.0
02/02:00pm 17.6 9.8 4.7 42 6.2 NW 35 52 19 28 997.6 997.6 0.0
02/01:53pm 17.4 9.8 3.8 40 6.4 NW 33 52 18 28 997.9 997.9 0.0
02/01:30pm 17.0 9.6 3.8 41 6.2 NW 32 44 17 24 998.5 998.5 0.0
02/01:02pm 16.8 9.6 3.2 40 6.2 NNW 30 48 16 26 999.1 999.1 0.0
02/01:00pm 16.7 9.8 2.4 38 6.5 NNW 28 43 15 23 999.2 999.2 0.0
02/12:49pm 16.3 7.8 3.3 42 6.0 NW 37 56 20 30 999.4 999.4 0.0
02/12:30pm 16.1 8.4 3.3 42 5.9 NW 33 46 18 25 999.7 999.7 0.0
02/12:02pm 15.6 8.2 4.0 46 5.4 NNW 32 50 17 27 1000.2 1000.2 0.0
02/12:00pm 15.6 8.1 4.3 47 5.3 NNW 33 50 18 27 1000.3 1000.3 0.0
02/11:44am 15.9 8.5 3.9 44 5.6 NW 32 50 17 27 1000.5 1000.5 0.0
02/11:30am 15.5 8.9 4.4 47 5.2 NW 28 37 15 20 1000.9 1000.9 0.0
02/11:00am 15.8 9.3 4.8 48 5.2 NNW 28 44 15 24 1001.2 1001.2 0.0
02/10:30am 14.3 8.5 4.4 51 4.6 NNW 24 33 13 18 1001.5 1001.5 0.0
02/10:00am 13.7 8.3 4.4 53 4.3 NNW 22 33 12 18 1002.0 1002.0 0.0
02/09:30am 13.1 8.6 4.4 55 4.0 NNW 17 28 9 15 1002.3 1002.3 0.0

Latest Capital City Observations: Canberra | Sydney | Melbourne | Brisbane | Adelaide | Perth | Hobart | Darwin

Other Formats:

Comma delimited format used in spreadsheet applications
http://www.bom.gov.au/fwo/IDT60901/IDT60901.94975.axf

JavaScript Object Notation format (JSON) in row-major order
http://www.bom.gov.au/fwo/IDT60901/IDT60901.94975.json